Terminal Aerodrome Forecast
Issued by NWS Shreveport, LA

Home | Current Version | Previous Version | Text Only | Print | Product List | Glossary On
Versions: 1 2 3 4 5 6 7 8 9 10 11 12 13
000
FTUS44 KSHV 291145
TAFSHV
TAF
KSHV 291145Z 2912/3012 24006KT P6SM BKN180
     FM292100 18006KT P6SM BKN100
     FM300200 20004KT P6SM BKN150=

USA.gov is the U.S. government's official web portal to all federal, state and local government web resources and services.